Lamco Airport

Jump to: basic info | weather | comments

Related pages: nearby airports | nearby navaids | notams | map

Basic information (top)

Codes: UCN GLLB
Location: lon 5.867000, lat -10.050000, elev 30 ft / 9 m msl
Status: small_airport
Scheduled airline service: no
Links: Wikipedia Mobile

Weather (top)

Current conditions for Roberts International Airport 29nm (53km) NW (rec'd 2014/12/21 16:00Z):

GLRB 211600Z 23004KT 9999 SCT020 31/25 Q1010 NOSIG

Airport forecast for Roberts International Airport 29nm (53km) NW (rec'd 2014/12/21 12:09Z):

TAF GLRB 211000Z 2112/2218 28010KT 9000 BKN018 
      BECMG 2115/2117 24008KT 7000 
     FM211800 08005KT 5000 TSRA SCT003 BKN013 FEW023CB 
      TEMPO 2202/2207 22008KT 8000 SCT014

Latest comments (top)

No comments yet for Lamco Airport

More... (top)

See also NOTAMs and nearby airports and navaids, or visit the Lamco Airport page at the main OurAirports website..